sensor_id;sensor_type;location;lat;lon;timestamp;pressure;altitude;pressure_sealevel;temperature;humidity
47220;BME280;32961;51.936;4.788;2023-07-31T00:02:05;100924.75;;;16.93;100.00
47220;BME280;32961;51.936;4.788;2023-07-31T00:04:33;100922.84;;;16.93;100.00
47220;BME280;32961;51.936;4.788;2023-07-31T00:07:02;100907.09;;;16.87;100.00
47220;BME280;32961;51.936;4.788;2023-07-31T00:09:31;100925.13;;;16.90;100.00
47220;BME280;32961;51.936;4.788;2023-07-31T00:11:59;100920.66;;;16.89;100.00
47220;BME280;32961;51.936;4.788;2023-07-31T00:14:26;100908.16;;;16.86;100.00
47220;BME280;32961;51.936;4.788;2023-07-31T00:16:54;100914.50;;;16.87;100.00
47220;BME280;32961;51.936;4.788;2023-07-31T00:19:22;100906.59;;;16.83;100.00
47220;BME280;32961;51.936;4.788;2023-07-31T00:21:50;100915.53;;;16.85;100.00
47220;BME280;32961;51.936;4.788;2023-07-31T00:24:19;100912.41;;;16.89;100.00
47220;BME280;32961;51.936;4.788;2023-07-31T00:26:47;100911.56;;;16.88;100.00
47220;BME280;32961;51.936;4.788;2023-07-31T00:29:15;100915.53;;;16.85;100.00
47220;BME280;32961;51.936;4.788;2023-07-31T00:31:43;100905.78;;;16.83;100.00
47220;BME280;32961;51.936;4.788;2023-07-31T00:34:11;100899.94;;;16.86;100.00
47220;BME280;32961;51.936;4.788;2023-07-31T00:36:38;100918.06;;;16.87;100.00
47220;BME280;32961;51.936;4.788;2023-07-31T00:39:07;100909.34;;;16.83;100.00
47220;BME280;32961;51.936;4.788;2023-07-31T00:41:36;100904.06;;;16.82;100.00
47220;BME280;32961;51.936;4.788;2023-07-31T00:44:04;100892.78;;;16.77;100.00
47220;BME280;32961;51.936;4.788;2023-07-31T00:46:31;100906.81;;;16.82;100.00
47220;BME280;32961;51.936;4.788;2023-07-31T00:48:59;100900.28;;;16.83;100.00
47220;BME280;32961;51.936;4.788;2023-07-31T00:51:27;100899.94;;;16.86;100.00
47220;BME280;32961;51.936;4.788;2023-07-31T00:53:55;100899.25;;;16.84;100.00
47220;BME280;32961;51.936;4.788;2023-07-31T00:56:23;100899.06;;;16.85;100.00
47220;BME280;32961;51.936;4.788;2023-07-31T00:58:53;100897.84;;;16.88;100.00
47220;BME280;32961;51.936;4.788;2023-07-31T01:01:21;100891.84;;;16.84;100.00
47220;BME280;32961;51.936;4.788;2023-07-31T01:03:49;100900.66;;;16.80;100.00
47220;BME280;32961;51.936;4.788;2023-07-31T01:06:29;100907.84;;;16.81;100.00
47220;BME280;32961;51.936;4.788;2023-07-31T01:09:02;100903.88;;;16.83;100.00
47220;BME280;32961;51.936;4.788;2023-07-31T01:11:31;100896.84;;;16.81;100.00
47220;BME280;32961;51.936;4.788;2023-07-31T01:14:02;100904.25;;;16.80;100.00
47220;BME280;32961;51.936;4.788;2023-07-31T01:16:30;100897.09;;;16.71;100.00
47220;BME280;32961;51.936;4.788;2023-07-31T01:18:58;100912.25;;;16.67;100.00
47220;BME280;32961;51.936;4.788;2023-07-31T01:21:50;100901.16;;;16.60;100.00
47220;BME280;32961;51.936;4.788;2023-07-31T01:24:23;100905.78;;;16.60;100.00
47220;BME280;32961;51.936;4.788;2023-07-31T01:27:01;100890.06;;;16.53;100.00
47220;BME280;32961;51.936;4.788;2023-07-31T01:29:36;100900.19;;;16.53;100.00
47220;BME280;32961;51.936;4.788;2023-07-31T01:32:06;100893.47;;;16.56;100.00
47220;BME280;32961;51.936;4.788;2023-07-31T01:34:35;100897.94;;;16.57;100.00
47220;BME280;32961;51.936;4.788;2023-07-31T01:37:04;100888.16;;;16.54;100.00
47220;BME280;32961;51.936;4.788;2023-07-31T01:39:32;100892.94;;;16.60;100.00
47220;BME280;32961;51.936;4.788;2023-07-31T01:42:01;100885.91;;;16.58;100.00
47220;BME280;32961;51.936;4.788;2023-07-31T01:44:29;100880.41;;;16.58;100.00
47220;BME280;32961;51.936;4.788;2023-07-31T01:46:57;100888.00;;;16.56;100.00
47220;BME280;32961;51.936;4.788;2023-07-31T01:49:26;100883.84;;;16.60;100.00
47220;BME280;32961;51.936;4.788;2023-07-31T01:51:54;100883.97;;;16.66;100.00
47220;BME280;32961;51.936;4.788;2023-07-31T01:54:22;100879.31;;;16.67;100.00
47220;BME280;32961;51.936;4.788;2023-07-31T01:56:50;100871.78;;;16.69;100.00
47220;BME280;32961;51.936;4.788;2023-07-31T01:59:19;100868.16;;;16.68;100.00
47220;BME280;32961;51.936;4.788;2023-07-31T02:01:47;100868.66;;;16.72;100.00
47220;BME280;32961;51.936;4.788;2023-07-31T02:04:16;100844.34;;;16.69;100.00
47220;BME280;32961;51.936;4.788;2023-07-31T02:06:44;100852.19;;;16.72;100.00
47220;BME280;32961;51.936;4.788;2023-07-31T02:09:12;100838.84;;;16.69;100.00
47220;BME280;32961;51.936;4.788;2023-07-31T02:11:40;100838.66;;;16.71;100.00
47220;BME280;32961;51.936;4.788;2023-07-31T02:14:07;100836.28;;;16.67;100.00
47220;BME280;32961;51.936;4.788;2023-07-31T02:16:37;100829.66;;;16.62;100.00
47220;BME280;32961;51.936;4.788;2023-07-31T02:19:05;100828.22;;;16.66;100.00
47220;BME280;32961;51.936;4.788;2023-07-31T02:21:33;100835.44;;;16.67;100.00
47220;BME280;32961;51.936;4.788;2023-07-31T02:24:01;100834.59;;;16.66;100.00
47220;BME280;32961;51.936;4.788;2023-07-31T02:26:30;100826.16;;;16.68;100.00
47220;BME280;32961;51.936;4.788;2023-07-31T02:28:58;100833.53;;;16.67;100.00
47220;BME280;32961;51.936;4.788;2023-07-31T02:31:26;100844.69;;;16.66;100.00
47220;BME280;32961;51.936;4.788;2023-07-31T02:33:55;100840.06;;;16.66;100.00
47220;BME280;32961;51.936;4.788;2023-07-31T02:36:23;100836.47;;;16.66;100.00
47220;BME280;32961;51.936;4.788;2023-07-31T02:38:51;100835.78;;;16.64;100.00
47220;BME280;32961;51.936;4.788;2023-07-31T02:41:19;100839.19;;;16.66;100.00
47220;BME280;32961;51.936;4.788;2023-07-31T02:43:46;100835.78;;;16.64;100.00
47220;BME280;32961;51.936;4.788;2023-07-31T02:46:14;100823.50;;;16.60;100.00
47220;BME280;32961;51.936;4.788;2023-07-31T02:48:43;100831.44;;;16.55;100.00
47220;BME280;32961;51.936;4.788;2023-07-31T02:51:12;100822.53;;;16.52;100.00
47220;BME280;32961;51.936;4.788;2023-07-31T02:53:40;100822.16;;;16.56;100.00
47220;BME280;32961;51.936;4.788;2023-07-31T02:56:06;100826.78;;;16.55;100.00
47220;BME280;32961;51.936;4.788;2023-07-31T02:58:34;100813.44;;;16.52;100.00
47220;BME280;32961;51.936;4.788;2023-07-31T03:01:02;100814.28;;;16.52;100.00
47220;BME280;32961;51.936;4.788;2023-07-31T03:03:30;100815.66;;;16.57;100.00
47220;BME280;32961;51.936;4.788;2023-07-31T03:05:58;100802.78;;;16.57;100.00
47220;BME280;32961;51.936;4.788;2023-07-31T03:08:27;100797.47;;;16.56;100.00
47220;BME280;32961;51.936;4.788;2023-07-31T03:10:56;100792.00;;;16.56;100.00
47220;BME280;32961;51.936;4.788;2023-07-31T03:13:24;100796.44;;;16.57;100.00
47220;BME280;32961;51.936;4.788;2023-07-31T03:15:52;100800.03;;;16.57;100.00
47220;BME280;32961;51.936;4.788;2023-07-31T03:18:20;100771.53;;;16.43;100.00
47220;BME280;32961;51.936;4.788;2023-07-31T03:20:48;100790.28;;;16.55;100.00
47220;BME280;32961;51.936;4.788;2023-07-31T03:23:16;100786.22;;;16.50;100.00
47220;BME280;32961;51.936;4.788;2023-07-31T03:25:56;100793.69;;;16.57;100.00
47220;BME280;32961;51.936;4.788;2023-07-31T03:28:25;100796.25;;;16.58;100.00
47220;BME280;32961;51.936;4.788;2023-07-31T03:30:53;100790.09;;;16.56;100.00
47220;BME280;32961;51.936;4.788;2023-07-31T03:33:21;100783.47;;;16.50;100.00
47220;BME280;32961;51.936;4.788;2023-07-31T03:35:49;100775.59;;;16.47;100.00
47220;BME280;32961;51.936;4.788;2023-07-31T03:38:17;100784.50;;;16.49;100.00
47220;BME280;32961;51.936;4.788;2023-07-31T03:40:44;100786.38;;;16.49;100.00
47220;BME280;32961;51.936;4.788;2023-07-31T03:43:15;100785.25;;;16.43;100.00
47220;BME280;32961;51.936;4.788;2023-07-31T03:45:43;100783.84;;;16.47;100.00
47220;BME280;32961;51.936;4.788;2023-07-31T03:48:11;100775.59;;;16.47;100.00
47220;BME280;32961;51.936;4.788;2023-07-31T03:50:39;100778.16;;;16.49;100.00
47220;BME280;32961;51.936;4.788;2023-07-31T03:53:06;100773.34;;;16.51;100.00
47220;BME280;32961;51.936;4.788;2023-07-31T03:55:34;100757.44;;;16.46;100.00
47220;BME280;32961;51.936;4.788;2023-07-31T03:58:02;100769.28;;;16.47;100.00
47220;BME280;32961;51.936;4.788;2023-07-31T04:00:31;100745.59;;;16.31;100.00
47220;BME280;32961;51.936;4.788;2023-07-31T04:02:59;100764.06;;;16.37;100.00
47220;BME280;32961;51.936;4.788;2023-07-31T04:05:30;100752.59;;;16.33;100.00
47220;BME280;32961;51.936;4.788;2023-07-31T04:07:58;100751.53;;;16.34;100.00
47220;BME280;32961;51.936;4.788;2023-07-31T04:10:26;100739.44;;;16.29;100.00
47220;BME280;32961;51.936;4.788;2023-07-31T04:12:54;100740.66;;;16.26;100.00
47220;BME280;32961;51.936;4.788;2023-07-31T04:15:21;100740.66;;;16.26;100.00
47220;BME280;32961;51.936;4.788;2023-07-31T04:17:51;100743.88;;;16.30;100.00
47220;BME280;32961;51.936;4.788;2023-07-31T04:20:18;100739.44;;;16.29;100.00
47220;BME280;32961;51.936;4.788;2023-07-31T04:22:47;100742.00;;;16.30;100.00
47220;BME280;32961;51.936;4.788;2023-07-31T04:25:14;100739.78;;;16.26;100.00
47220;BME280;32961;51.936;4.788;2023-07-31T04:27:43;100727.78;;;16.27;100.00
47220;BME280;32961;51.936;4.788;2023-07-31T04:30:11;100727.13;;;16.25;100.00
47220;BME280;32961;51.936;4.788;2023-07-31T04:32:39;100736.03;;;16.27;100.00
47220;BME280;32961;51.936;4.788;2023-07-31T04:35:08;100734.50;;;16.24;100.00
47220;BME280;32961;51.936;4.788;2023-07-31T04:37:36;100726.28;;;16.24;100.00
47220;BME280;32961;51.936;4.788;2023-07-31T04:40:06;100725.13;;;16.18;100.00
47220;BME280;32961;51.936;4.788;2023-07-31T04:42:34;100726.66;;;16.21;100.00
47220;BME280;32961;51.936;4.788;2023-07-31T04:45:03;100725.69;;;16.14;100.00
47220;BME280;32961;51.936;4.788;2023-07-31T04:47:31;100717.28;;;16.15;100.00
47220;BME280;32961;51.936;4.788;2023-07-31T04:49:59;100712.34;;;16.11;100.00
47220;BME280;32961;51.936;4.788;2023-07-31T04:52:28;100711.03;;;16.07;100.00
47220;BME280;32961;51.936;4.788;2023-07-31T04:54:56;100704.03;;;16.04;100.00
47220;BME280;32961;51.936;4.788;2023-07-31T04:57:24;100712.53;;;16.09;100.00
47220;BME280;32961;51.936;4.788;2023-07-31T04:59:52;100707.72;;;16.11;100.00
47220;BME280;32961;51.936;4.788;2023-07-31T05:02:19;100708.75;;;16.10;100.00
47220;BME280;32961;51.936;4.788;2023-07-31T05:04:47;100704.31;;;16.09;100.00
47220;BME280;32961;51.936;4.788;2023-07-31T05:07:15;100689.94;;;16.07;100.00
47220;BME280;32961;51.936;4.788;2023-07-31T05:09:45;100701.19;;;16.12;100.00
47220;BME280;32961;51.936;4.788;2023-07-31T05:12:13;100694.03;;;16.11;100.00
47220;BME280;32961;51.936;4.788;2023-07-31T05:14:41;100698.16;;;16.07;100.00
47220;BME280;32961;51.936;4.788;2023-07-31T05:17:08;100700.53;;;16.10;100.00
47220;BME280;32961;51.936;4.788;2023-07-31T05:19:36;100698.63;;;16.11;100.00
47220;BME280;32961;51.936;4.788;2023-07-31T05:22:04;100695.41;;;16.07;100.00
47220;BME280;32961;51.936;4.788;2023-07-31T05:24:32;100683.41;;;16.08;100.00
47220;BME280;32961;51.936;4.788;2023-07-31T05:27:02;100696.78;;;16.11;100.00
47220;BME280;32961;51.936;4.788;2023-07-31T05:29:30;100675.88;;;16.10;100.00
47220;BME280;32961;51.936;4.788;2023-07-31T05:31:58;100677.59;;;16.11;100.00
47220;BME280;32961;51.936;4.788;2023-07-31T05:34:26;100683.06;;;16.11;100.00
47220;BME280;32961;51.936;4.788;2023-07-31T05:36:54;100668.50;;;16.11;100.00
47220;BME280;32961;51.936;4.788;2023-07-31T05:39:21;100666.63;;;16.11;100.00
47220;BME280;32961;51.936;4.788;2023-07-31T05:41:49;100672.94;;;16.12;100.00
47220;BME280;32961;51.936;4.788;2023-07-31T05:44:18;100660.66;;;16.08;100.00
47220;BME280;32961;51.936;4.788;2023-07-31T05:46:46;100655.66;;;16.11;100.00
47220;BME280;32961;51.936;4.788;2023-07-31T05:49:14;100657.34;;;16.12;100.00
47220;BME280;32961;51.936;4.788;2023-07-31T05:51:42;100653.56;;;16.13;100.00
47220;BME280;32961;51.936;4.788;2023-07-31T05:54:10;100655.94;;;16.16;100.00
47220;BME280;32961;51.936;4.788;2023-07-31T05:56:37;100655.94;;;16.16;100.00
47220;BME280;32961;51.936;4.788;2023-07-31T05:59:06;100642.78;;;16.12;100.00
47220;BME280;32961;51.936;4.788;2023-07-31T06:01:35;100641.84;;;16.19;100.00
47220;BME280;32961;51.936;4.788;2023-07-31T06:04:03;100636.22;;;16.21;100.00
47220;BME280;32961;51.936;4.788;2023-07-31T06:06:31;100641.84;;;16.19;100.00
47220;BME280;32961;51.936;4.788;2023-07-31T06:08:59;100630.72;;;16.21;100.00
47220;BME280;32961;51.936;4.788;2023-07-31T06:11:27;100638.38;;;16.26;100.00
47220;BME280;32961;51.936;4.788;2023-07-31T06:13:55;100631.00;;;16.26;100.00
47220;BME280;32961;51.936;4.788;2023-07-31T06:16:23;100643.28;;;16.30;100.00
47220;BME280;32961;51.936;4.788;2023-07-31T06:18:52;100635.25;;;16.29;100.00
47220;BME280;32961;51.936;4.788;2023-07-31T06:21:20;100648.03;;;16.36;100.00
47220;BME280;32961;51.936;4.788;2023-07-31T06:23:47;100631.97;;;16.33;100.00
47220;BME280;32961;51.936;4.788;2023-07-31T06:26:15;100633.84;;;16.33;100.00
47220;BME280;32961;51.936;4.788;2023-07-31T06:28:43;100633.09;;;16.39;100.00
47220;BME280;32961;51.936;4.788;2023-07-31T06:31:11;100624.09;;;16.45;100.00
47220;BME280;32961;51.936;4.788;2023-07-31T06:33:39;100617.78;;;16.45;100.00
47220;BME280;32961;51.936;4.788;2023-07-31T06:36:08;100625.44;;;16.49;100.00
47220;BME280;32961;51.936;4.788;2023-07-31T06:38:36;100622.72;;;16.49;100.00
47220;BME280;32961;51.936;4.788;2023-07-31T06:41:04;100621.28;;;16.53;100.00
47220;BME280;32961;51.936;4.788;2023-07-31T06:43:32;100613.03;;;16.53;100.00
47220;BME280;32961;51.936;4.788;2023-07-31T06:46:04;100607.75;;;16.52;100.00
47220;BME280;32961;51.936;4.788;2023-07-31T06:48:32;100609.63;;;16.51;100.00
47220;BME280;32961;51.936;4.788;2023-07-31T06:51:00;100609.00;;;16.49;100.00
47220;BME280;32961;51.936;4.788;2023-07-31T06:53:30;100603.13;;;16.52;100.00
47220;BME280;32961;51.936;4.788;2023-07-31T06:55:58;100597.72;;;16.59;100.00
47220;BME280;32961;51.936;4.788;2023-07-31T06:58:25;100592.06;;;16.61;100.00
47220;BME280;32961;51.936;4.788;2023-07-31T07:00:53;100604.94;;;16.60;100.00
47220;BME280;32961;51.936;4.788;2023-07-31T07:03:21;100602.19;;;16.60;100.00
47220;BME280;32961;51.936;4.788;2023-07-31T07:05:49;100586.16;;;16.64;100.00
47220;BME280;32961;51.936;4.788;2023-07-31T07:08:17;100602.25;;;16.67;100.00
47220;BME280;32961;51.936;4.788;2023-07-31T07:10:46;100602.06;;;16.68;100.00
47220;BME280;32961;51.936;4.788;2023-07-31T07:13:14;100611.78;;;16.71;100.00
47220;BME280;32961;51.936;4.788;2023-07-31T07:15:42;100596.47;;;16.77;100.00
47220;BME280;32961;51.936;4.788;2023-07-31T07:18:10;100597.97;;;16.79;100.00
47220;BME280;32961;51.936;4.788;2023-07-31T07:20:38;100603.28;;;16.81;100.00
47220;BME280;32961;51.936;4.788;2023-07-31T07:23:06;100597.41;;;16.84;100.00
47220;BME280;32961;51.936;4.788;2023-07-31T07:25:37;100595.44;;;16.93;100.00
47220;BME280;32961;51.936;4.788;2023-07-31T07:28:06;100608.97;;;16.94;100.00
47220;BME280;32961;51.936;4.788;2023-07-31T07:30:34;100600.34;;;16.97;100.00
47220;BME280;32961;51.936;4.788;2023-07-31T07:33:02;100596.47;;;16.92;100.00
47220;BME280;32961;51.936;4.788;2023-07-31T07:35:32;100578.88;;;16.86;100.00
47220;BME280;32961;51.936;4.788;2023-07-31T07:38:01;100583.75;;;16.91;100.00
47220;BME280;32961;51.936;4.788;2023-07-31T07:40:29;100593.91;;;16.90;100.00
47220;BME280;32961;51.936;4.788;2023-07-31T07:42:56;100598.66;;;16.96;100.00
47220;BME280;32961;51.936;4.788;2023-07-31T07:45:28;100602.06;;;16.98;100.00
47220;BME280;32961;51.936;4.788;2023-07-31T07:47:55;100602.22;;;16.97;100.00
47220;BME280;32961;51.936;4.788;2023-07-31T07:50:24;100589.75;;;16.94;100.00
47220;BME280;32961;51.936;4.788;2023-07-31T07:52:52;100596.75;;;16.97;100.00
47220;BME280;32961;51.936;4.788;2023-07-31T07:55:20;100597.31;;;17.07;100.00
47220;BME280;32961;51.936;4.788;2023-07-31T07:57:48;100595.28;;;17.16;100.00
47220;BME280;32961;51.936;4.788;2023-07-31T08:00:17;100593.00;;;17.20;100.00
47220;BME280;32961;51.936;4.788;2023-07-31T08:02:46;100586.72;;;17.26;100.00
47220;BME280;32961;51.936;4.788;2023-07-31T08:05:14;100590.16;;;17.28;100.00
47220;BME280;32961;51.936;4.788;2023-07-31T08:07:44;100590.19;;;17.35;100.00
47220;BME280;32961;51.936;4.788;2023-07-31T08:10:11;100584.78;;;17.41;100.00
47220;BME280;32961;51.936;4.788;2023-07-31T08:12:39;100578.44;;;17.41;100.00
47220;BME280;32961;51.936;4.788;2023-07-31T08:15:08;100577.59;;;17.40;100.00
47220;BME280;32961;51.936;4.788;2023-07-31T08:17:36;100579.31;;;17.41;100.00
47220;BME280;32961;51.936;4.788;2023-07-31T08:20:06;100574.84;;;17.40;100.00
47220;BME280;32961;51.936;4.788;2023-07-31T08:22:34;100569.63;;;17.45;100.00
47220;BME280;32961;51.936;4.788;2023-07-31T08:25:03;100576.03;;;17.53;100.00
47220;BME280;32961;51.936;4.788;2023-07-31T08:27:30;100574.09;;;17.53;100.00
47220;BME280;32961;51.936;4.788;2023-07-31T08:29:58;100575.59;;;17.56;100.00
47220;BME280;32961;51.936;4.788;2023-07-31T08:32:26;100580.94;;;17.57;100.00
47220;BME280;32961;51.936;4.788;2023-07-31T08:34:54;100564.63;;;17.56;100.00
47220;BME280;32961;51.936;4.788;2023-07-31T08:37:23;100565.88;;;17.53;100.00
47220;BME280;32961;51.936;4.788;2023-07-31T08:39:51;100571.97;;;17.48;100.00
47220;BME280;32961;51.936;4.788;2023-07-31T08:42:20;100567.31;;;17.49;100.00
47220;BME280;32961;51.936;4.788;2023-07-31T08:44:48;100571.31;;;17.46;100.00
47220;BME280;32961;51.936;4.788;2023-07-31T08:47:18;100576.47;;;17.56;100.00
47220;BME280;32961;51.936;4.788;2023-07-31T08:49:47;100576.53;;;17.63;100.00
47220;BME280;32961;51.936;4.788;2023-07-31T08:52:15;100572.34;;;17.67;100.00
47220;BME280;32961;51.936;4.788;2023-07-31T08:54:44;100576.00;;;17.74;100.00
47220;BME280;32961;51.936;4.788;2023-07-31T08:57:12;100572.47;;;17.80;100.00
47220;BME280;32961;51.936;4.788;2023-07-31T08:59:41;100565.91;;;17.81;100.00
47220;BME280;32961;51.936;4.788;2023-07-31T09:02:11;100579.63;;;17.81;100.00
47220;BME280;32961;51.936;4.788;2023-07-31T09:04:41;100569.97;;;17.86;100.00
47220;BME280;32961;51.936;4.788;2023-07-31T09:07:09;100569.97;;;17.86;100.00
47220;BME280;32961;51.936;4.788;2023-07-31T09:09:39;100569.53;;;17.89;100.00
47220;BME280;32961;51.936;4.788;2023-07-31T09:12:09;100589.06;;;17.94;100.00
47220;BME280;32961;51.936;4.788;2023-07-31T09:14:37;100569.16;;;17.92;100.00
47220;BME280;32961;51.936;4.788;2023-07-31T09:17:05;100569.53;;;17.89;100.00
47220;BME280;32961;51.936;4.788;2023-07-31T09:19:34;100572.28;;;17.89;100.00
47220;BME280;32961;51.936;4.788;2023-07-31T09:22:04;100559.22;;;17.91;100.00
47220;BME280;32961;51.936;4.788;2023-07-31T09:24:33;100555.69;;;17.97;100.00
47220;BME280;32961;51.936;4.788;2023-07-31T09:27:02;100562.09;;;18.04;100.00
47220;BME280;32961;51.936;4.788;2023-07-31T09:29:31;100565.50;;;18.06;100.00
47220;BME280;32961;51.936;4.788;2023-07-31T09:31:59;100562.53;;;18.08;100.00
47220;BME280;32961;51.936;4.788;2023-07-31T09:34:36;100555.34;;;18.07;100.00
47220;BME280;32961;51.936;4.788;2023-07-31T09:37:05;100560.91;;;18.14;100.00
47220;BME280;32961;51.936;4.788;2023-07-31T09:39:45;100552.88;;;18.19;100.00
47220;BME280;32961;51.936;4.788;2023-07-31T09:42:13;100559.66;;;18.23;100.00
47220;BME280;32961;51.936;4.788;2023-07-31T09:44:42;100554.16;;;18.23;100.00
47220;BME280;32961;51.936;4.788;2023-07-31T09:47:21;100555.44;;;18.20;100.00
47220;BME280;32961;51.936;4.788;2023-07-31T09:49:51;100543.59;;;18.20;100.00
47220;BME280;32961;51.936;4.788;2023-07-31T09:52:18;100557.94;;;18.15;100.00
47220;BME280;32961;51.936;4.788;2023-07-31T09:54:46;100549.91;;;18.14;100.00
47220;BME280;32961;51.936;4.788;2023-07-31T09:57:16;100538.03;;;18.13;100.00
47220;BME280;32961;51.936;4.788;2023-07-31T09:59:47;100551.19;;;18.18;100.00
47220;BME280;32961;51.936;4.788;2023-07-31T10:02:21;100552.69;;;18.20;100.00
47220;BME280;32961;51.936;4.788;2023-07-31T10:04:50;100557.56;;;18.25;100.00
47220;BME280;32961;51.936;4.788;2023-07-31T10:07:20;100552.06;;;18.25;100.00
47220;BME280;32961;51.936;4.788;2023-07-31T10:09:51;100552.69;;;18.27;100.00
47220;BME280;32961;51.936;4.788;2023-07-31T10:12:22;100551.03;;;18.26;100.00
47220;BME280;32961;51.936;4.788;2023-07-31T10:14:54;100549.56;;;18.30;100.00
47220;BME280;32961;51.936;4.788;2023-07-31T10:17:23;100552.97;;;18.32;100.00
47220;BME280;32961;51.936;4.788;2023-07-31T10:19:51;100547.88;;;18.29;100.00
47220;BME280;32961;51.936;4.788;2023-07-31T10:22:21;100554.81;;;18.25;100.00
47220;BME280;32961;51.936;4.788;2023-07-31T10:24:50;100549.94;;;18.27;100.00
47220;BME280;32961;51.936;4.788;2023-07-31T10:27:20;100559.50;;;18.31;100.00
47220;BME280;32961;51.936;4.788;2023-07-31T10:29:48;100555.06;;;18.30;100.00
47220;BME280;32961;51.936;4.788;2023-07-31T10:32:18;100554.81;;;18.25;100.00
47220;BME280;32961;51.936;4.788;2023-07-31T10:34:47;100563.69;;;18.27;100.00
47220;BME280;32961;51.936;4.788;2023-07-31T10:37:24;100554.81;;;18.25;100.00
47220;BME280;32961;51.936;4.788;2023-07-31T10:40:00;100555.88;;;18.24;100.00
47220;BME280;32961;51.936;4.788;2023-07-31T10:42:32;100554.16;;;18.23;100.00
47220;BME280;32961;51.936;4.788;2023-07-31T10:45:03;100548.44;;;18.18;100.00
47220;BME280;32961;51.936;4.788;2023-07-31T10:47:36;100551.19;;;18.18;100.00
47220;BME280;32961;51.936;4.788;2023-07-31T10:50:21;100548.66;;;18.16;100.00
47220;BME280;32961;51.936;4.788;2023-07-31T10:52:51;100549.09;;;18.20;100.00
47220;BME280;32961;51.936;4.788;2023-07-31T10:55:25;100552.28;;;18.23;100.00
47220;BME280;32961;51.936;4.788;2023-07-31T10:57:55;100544.47;;;18.27;100.00
47220;BME280;32961;51.936;4.788;2023-07-31T11:00:26;100544.72;;;18.32;100.00
47220;BME280;32961;51.936;4.788;2023-07-31T11:03:03;100552.53;;;18.35;100.00
47220;BME280;32961;51.936;4.788;2023-07-31T11:05:48;100545.78;;;18.38;100.00
47220;BME280;32961;51.936;4.788;2023-07-31T11:08:19;100543.03;;;18.38;100.00
47220;BME280;32961;51.936;4.788;2023-07-31T11:10:48;100543.91;;;18.38;100.00
47220;BME280;32961;51.936;4.788;2023-07-31T11:13:16;100536.25;;;18.34;100.00
47220;BME280;32961;51.936;4.788;2023-07-31T11:15:44;100525.50;;;18.39;100.00
47220;BME280;32961;51.936;4.788;2023-07-31T11:18:15;100528.91;;;18.41;100.00
47220;BME280;32961;51.936;4.788;2023-07-31T11:20:43;100528.06;;;18.47;100.00
47220;BME280;32961;51.936;4.788;2023-07-31T11:23:12;100531.88;;;18.46;100.00
47220;BME280;32961;51.936;4.788;2023-07-31T11:25:40;100520.66;;;18.48;100.00
47220;BME280;32961;51.936;4.788;2023-07-31T11:28:10;100521.31;;;18.50;100.00
47220;BME280;32961;51.936;4.788;2023-07-31T11:30:39;100519.59;;;18.49;100.00
47220;BME280;32961;51.936;4.788;2023-07-31T11:33:08;100518.13;;;18.46;100.00
47220;BME280;32961;51.936;4.788;2023-07-31T11:35:41;100518.53;;;18.43;100.00
47220;BME280;32961;51.936;4.788;2023-07-31T11:38:11;100525.53;;;18.46;100.00
47220;BME280;32961;51.936;4.788;2023-07-31T11:40:43;100521.09;;;18.51;100.00
47220;BME280;32961;51.936;4.788;2023-07-31T11:43:11;100520.69;;;18.54;100.00
47220;BME280;32961;51.936;4.788;2023-07-31T11:45:45;100518.56;;;18.56;100.00
47220;BME280;32961;51.936;4.788;2023-07-31T11:48:26;100517.53;;;18.57;100.00
47220;BME280;32961;51.936;4.788;2023-07-31T11:50:57;100525.16;;;18.55;100.00
47220;BME280;32961;51.936;4.788;2023-07-31T11:53:28;100517.94;;;18.54;100.00
47220;BME280;32961;51.936;4.788;2023-07-31T11:56:00;100525.34;;;18.54;100.00
47220;BME280;32961;51.936;4.788;2023-07-31T11:58:29;100542.94;;;18.53;100.00
47220;BME280;32961;51.936;4.788;2023-07-31T12:00:59;100548.44;;;18.53;100.00
47220;BME280;32961;51.936;4.788;2023-07-31T12:03:27;100537.81;;;18.50;100.00
47220;BME280;32961;51.936;4.788;2023-07-31T12:05:56;100534.03;;;18.57;100.00
47220;BME280;32961;51.936;4.788;2023-07-31T12:08:25;100525.16;;;18.62;100.00
47220;BME280;32961;51.936;4.788;2023-07-31T12:10:54;100513.75;;;18.65;100.00
47220;BME280;32961;51.936;4.788;2023-07-31T12:13:23;100505.31;;;18.73;100.00
47220;BME280;32961;51.936;4.788;2023-07-31T12:15:54;100508.94;;;18.81;100.00
47220;BME280;32961;51.936;4.788;2023-07-31T12:18:24;100504.91;;;18.83;100.00
47220;BME280;32961;51.936;4.788;2023-07-31T12:20:54;100496.66;;;18.83;100.00
47220;BME280;32961;51.936;4.788;2023-07-31T12:23:25;100497.75;;;18.82;100.00
47220;BME280;32961;51.936;4.788;2023-07-31T12:26:02;100497.75;;;18.82;100.00
47220;BME280;32961;51.936;4.788;2023-07-31T12:28:30;100499.41;;;18.83;100.00
47220;BME280;32961;51.936;4.788;2023-07-31T12:30:59;100491.78;;;18.79;100.00
47220;BME280;32961;51.936;4.788;2023-07-31T12:33:31;100481.84;;;18.77;100.00
47220;BME280;32961;51.936;4.788;2023-07-31T12:36:01;100486.91;;;18.81;100.00
47220;BME280;32961;51.936;4.788;2023-07-31T12:38:30;100484.16;;;18.81;100.00
47220;BME280;32961;51.936;4.788;2023-07-31T12:40:58;100487.56;;;18.89;100.00
47220;BME280;32961;51.936;4.788;2023-07-31T12:43:26;100483.97;;;18.82;100.00
47220;BME280;32961;51.936;4.788;2023-07-31T12:45:55;100469.56;;;18.80;100.00
47220;BME280;32961;51.936;4.788;2023-07-31T12:48:23;100468.94;;;18.85;100.00
47220;BME280;32961;51.936;4.788;2023-07-31T12:50:53;100466.19;;;18.85;100.00